sensor_id;sensor_type;location;lat;lon;timestamp;P1;durP1;ratioP1;P2;durP2;ratioP2
11191;SDS011;5652;48.406;10.820;2024-02-04T00:00:15;2.83;;;2.60;;
11191;SDS011;5652;48.406;10.820;2024-02-04T00:02:44;3.67;;;2.60;;
11191;SDS011;5652;48.406;10.820;2024-02-04T00:05:11;2.60;;;2.40;;
11191;SDS011;5652;48.406;10.820;2024-02-04T00:07:38;2.50;;;2.30;;
11191;SDS011;5652;48.406;10.820;2024-02-04T00:10:06;2.75;;;2.47;;
11191;SDS011;5652;48.406;10.820;2024-02-04T00:12:33;2.70;;;2.35;;
11191;SDS011;5652;48.406;10.820;2024-02-04T00:15:00;3.10;;;2.63;;
11191;SDS011;5652;48.406;10.820;2024-02-04T00:17:29;2.80;;;2.50;;
11191;SDS011;5652;48.406;10.820;2024-02-04T00:19:59;2.45;;;2.25;;
11191;SDS011;5652;48.406;10.820;2024-02-04T00:22:27;2.60;;;2.25;;
11191;SDS011;5652;48.406;10.820;2024-02-04T00:24:54;3.35;;;2.22;;
11191;SDS011;5652;48.406;10.820;2024-02-04T00:27:26;2.60;;;2.20;;
11191;SDS011;5652;48.406;10.820;2024-02-04T00:29:53;2.42;;;2.22;;
11191;SDS011;5652;48.406;10.820;2024-02-04T00:32:20;2.50;;;2.30;;
11191;SDS011;5652;48.406;10.820;2024-02-04T00:34:47;2.80;;;2.10;;
11191;SDS011;5652;48.406;10.820;2024-02-04T00:37:16;2.55;;;2.30;;
11191;SDS011;5652;48.406;10.820;2024-02-04T00:39:43;3.08;;;2.60;;
11191;SDS011;5652;48.406;10.820;2024-02-04T00:42:11;2.60;;;2.40;;
11191;SDS011;5652;48.406;10.820;2024-02-04T00:44:38;3.00;;;2.70;;
11191;SDS011;5652;48.406;10.820;2024-02-04T00:47:05;2.92;;;2.58;;
11191;SDS011;5652;48.406;10.820;2024-02-04T00:49:33;3.53;;;3.22;;
11191;SDS011;5652;48.406;10.820;2024-02-04T00:52:00;3.08;;;2.83;;
11191;SDS011;5652;48.406;10.820;2024-02-04T00:54:28;4.03;;;3.55;;
11191;SDS011;5652;48.406;10.820;2024-02-04T00:56:55;3.78;;;3.38;;
11191;SDS011;5652;48.406;10.820;2024-02-04T00:59:23;3.85;;;3.40;;
11191;SDS011;5652;48.406;10.820;2024-02-04T01:01:50;4.07;;;3.17;;
11191;SDS011;5652;48.406;10.820;2024-02-04T01:04:17;3.78;;;3.40;;
11191;SDS011;5652;48.406;10.820;2024-02-04T01:06:44;4.00;;;3.60;;
11191;SDS011;5652;48.406;10.820;2024-02-04T01:09:11;3.80;;;3.50;;
11191;SDS011;5652;48.406;10.820;2024-02-04T01:11:40;3.65;;;3.20;;
11191;SDS011;5652;48.406;10.820;2024-02-04T01:14:07;3.72;;;3.40;;
11191;SDS011;5652;48.406;10.820;2024-02-04T01:16:34;3.90;;;3.50;;
11191;SDS011;5652;48.406;10.820;2024-02-04T01:19:01;3.95;;;3.55;;
11191;SDS011;5652;48.406;10.820;2024-02-04T01:21:28;3.45;;;3.15;;
11191;SDS011;5652;48.406;10.820;2024-02-04T01:23:55;3.55;;;3.25;;
11191;SDS011;5652;48.406;10.820;2024-02-04T01:26:23;3.50;;;3.00;;
11191;SDS011;5652;48.406;10.820;2024-02-04T01:28:51;3.40;;;3.10;;
11191;SDS011;5652;48.406;10.820;2024-02-04T01:31:18;3.95;;;3.13;;
11191;SDS011;5652;48.406;10.820;2024-02-04T01:33:45;2.83;;;2.53;;
11191;SDS011;5652;48.406;10.820;2024-02-04T01:36:12;3.25;;;2.95;;
11191;SDS011;5652;48.406;10.820;2024-02-04T01:38:40;3.38;;;2.80;;
11191;SDS011;5652;48.406;10.820;2024-02-04T01:41:07;3.00;;;2.70;;
11191;SDS011;5652;48.406;10.820;2024-02-04T01:43:34;3.00;;;2.70;;
11191;SDS011;5652;48.406;10.820;2024-02-04T01:46:02;3.40;;;2.70;;
11191;SDS011;5652;48.406;10.820;2024-02-04T01:48:29;2.80;;;2.60;;
11191;SDS011;5652;48.406;10.820;2024-02-04T01:50:57;2.90;;;2.60;;
11191;SDS011;5652;48.406;10.820;2024-02-04T01:53:26;2.50;;;2.30;;
11191;SDS011;5652;48.406;10.820;2024-02-04T01:55:53;2.85;;;2.60;;
11191;SDS011;5652;48.406;10.820;2024-02-04T01:58:20;2.22;;;2.03;;
11191;SDS011;5652;48.406;10.820;2024-02-04T02:00:48;2.50;;;2.30;;
11191;SDS011;5652;48.406;10.820;2024-02-04T02:03:17;2.25;;;2.05;;
11191;SDS011;5652;48.406;10.820;2024-02-04T02:05:45;2.10;;;1.90;;
11191;SDS011;5652;48.406;10.820;2024-02-04T02:08:12;2.33;;;2.13;;
11191;SDS011;5652;48.406;10.820;2024-02-04T02:10:40;2.38;;;2.05;;
11191;SDS011;5652;48.406;10.820;2024-02-04T02:13:14;2.22;;;2.03;;
11191;SDS011;5652;48.406;10.820;2024-02-04T02:15:43;2.20;;;1.90;;
11191;SDS011;5652;48.406;10.820;2024-02-04T02:18:14;2.50;;;2.00;;
11191;SDS011;5652;48.406;10.820;2024-02-04T02:20:47;2.20;;;2.00;;
11191;SDS011;5652;48.406;10.820;2024-02-04T02:23:20;1.92;;;1.80;;
11191;SDS011;5652;48.406;10.820;2024-02-04T02:25:49;2.22;;;2.00;;
11191;SDS011;5652;48.406;10.820;2024-02-04T02:28:18;2.20;;;2.00;;
11191;SDS011;5652;48.406;10.820;2024-02-04T02:30:45;2.03;;;1.83;;
11191;SDS011;5652;48.406;10.820;2024-02-04T02:33:12;2.42;;;2.15;;
11191;SDS011;5652;48.406;10.820;2024-02-04T02:35:39;2.30;;;2.10;;
11191;SDS011;5652;48.406;10.820;2024-02-04T02:38:07;2.30;;;2.10;;
11191;SDS011;5652;48.406;10.820;2024-02-04T02:40:38;2.67;;;2.38;;
11191;SDS011;5652;48.406;10.820;2024-02-04T02:43:07;2.42;;;2.22;;
11191;SDS011;5652;48.406;10.820;2024-02-04T02:45:35;2.88;;;2.58;;
11191;SDS011;5652;48.406;10.820;2024-02-04T02:48:04;3.03;;;2.70;;
11191;SDS011;5652;48.406;10.820;2024-02-04T02:50:33;3.13;;;2.83;;
11191;SDS011;5652;48.406;10.820;2024-02-04T02:53:00;2.72;;;2.53;;
11191;SDS011;5652;48.406;10.820;2024-02-04T02:55:27;2.70;;;2.50;;
11191;SDS011;5652;48.406;10.820;2024-02-04T02:57:54;3.30;;;2.80;;
11191;SDS011;5652;48.406;10.820;2024-02-04T03:00:23;3.28;;;2.95;;
11191;SDS011;5652;48.406;10.820;2024-02-04T03:02:50;2.92;;;2.63;;
11191;SDS011;5652;48.406;10.820;2024-02-04T03:05:17;3.30;;;3.00;;
11191;SDS011;5652;48.406;10.820;2024-02-04T03:07:44;3.22;;;2.92;;
11191;SDS011;5652;48.406;10.820;2024-02-04T03:10:11;3.22;;;2.92;;
11191;SDS011;5652;48.406;10.820;2024-02-04T03:12:39;3.45;;;2.70;;
11191;SDS011;5652;48.406;10.820;2024-02-04T03:15:07;3.20;;;2.90;;
11191;SDS011;5652;48.406;10.820;2024-02-04T03:17:35;3.28;;;2.97;;
11191;SDS011;5652;48.406;10.820;2024-02-04T03:20:03;3.42;;;3.00;;
11191;SDS011;5652;48.406;10.820;2024-02-04T03:22:30;3.20;;;2.90;;
11191;SDS011;5652;48.406;10.820;2024-02-04T03:24:57;3.45;;;2.95;;
11191;SDS011;5652;48.406;10.820;2024-02-04T03:27:24;3.40;;;3.10;;
11191;SDS011;5652;48.406;10.820;2024-02-04T03:29:51;3.78;;;2.97;;
11191;SDS011;5652;48.406;10.820;2024-02-04T03:32:18;3.90;;;2.92;;
11191;SDS011;5652;48.406;10.820;2024-02-04T03:34:48;3.20;;;2.90;;
11191;SDS011;5652;48.406;10.820;2024-02-04T03:37:15;3.03;;;2.70;;
11191;SDS011;5652;48.406;10.820;2024-02-04T03:39:43;3.28;;;2.80;;
11191;SDS011;5652;48.406;10.820;2024-02-04T03:42:10;3.78;;;3.10;;
11191;SDS011;5652;48.406;10.820;2024-02-04T03:44:37;3.40;;;3.00;;
11191;SDS011;5652;48.406;10.820;2024-02-04T03:47:04;3.33;;;3.03;;
11191;SDS011;5652;48.406;10.820;2024-02-04T03:49:31;3.03;;;2.70;;
11191;SDS011;5652;48.406;10.820;2024-02-04T03:52:00;3.22;;;2.80;;
11191;SDS011;5652;48.406;10.820;2024-02-04T03:54:27;3.00;;;2.70;;
11191;SDS011;5652;48.406;10.820;2024-02-04T03:56:54;3.20;;;2.83;;
11191;SDS011;5652;48.406;10.820;2024-02-04T03:59:21;3.10;;;2.78;;
11191;SDS011;5652;48.406;10.820;2024-02-04T04:01:49;3.27;;;2.70;;
11191;SDS011;5652;48.406;10.820;2024-02-04T04:04:18;2.67;;;2.47;;
11191;SDS011;5652;48.406;10.820;2024-02-04T04:06:45;2.83;;;2.60;;
11191;SDS011;5652;48.406;10.820;2024-02-04T04:09:15;3.15;;;2.85;;
11191;SDS011;5652;48.406;10.820;2024-02-04T04:11:42;2.87;;;2.47;;
11191;SDS011;5652;48.406;10.820;2024-02-04T04:14:09;2.70;;;2.50;;
11191;SDS011;5652;48.406;10.820;2024-02-04T04:16:36;2.78;;;2.50;;
11191;SDS011;5652;48.406;10.820;2024-02-04T04:19:03;2.60;;;2.40;;
11191;SDS011;5652;48.406;10.820;2024-02-04T04:21:30;3.00;;;2.60;;
11191;SDS011;5652;48.406;10.820;2024-02-04T04:23:57;2.50;;;2.30;;
11191;SDS011;5652;48.406;10.820;2024-02-04T04:26:26;2.70;;;2.50;;
11191;SDS011;5652;48.406;10.820;2024-02-04T04:28:53;2.80;;;2.50;;
11191;SDS011;5652;48.406;10.820;2024-02-04T04:31:20;3.08;;;2.78;;
11191;SDS011;5652;48.406;10.820;2024-02-04T04:33:47;3.03;;;2.72;;
11191;SDS011;5652;48.406;10.820;2024-02-04T04:36:14;2.90;;;2.60;;
11191;SDS011;5652;48.406;10.820;2024-02-04T04:38:41;3.80;;;2.90;;
11191;SDS011;5652;48.406;10.820;2024-02-04T04:41:08;3.58;;;3.28;;
11191;SDS011;5652;48.406;10.820;2024-02-04T04:43:37;3.55;;;3.25;;
11191;SDS011;5652;48.406;10.820;2024-02-04T04:46:04;3.70;;;3.30;;
11191;SDS011;5652;48.406;10.820;2024-02-04T04:48:32;3.65;;;3.35;;
11191;SDS011;5652;48.406;10.820;2024-02-04T04:50:59;4.13;;;3.58;;
11191;SDS011;5652;48.406;10.820;2024-02-04T04:53:26;3.95;;;3.55;;
11191;SDS011;5652;48.406;10.820;2024-02-04T04:55:53;4.45;;;3.42;;
11191;SDS011;5652;48.406;10.820;2024-02-04T04:58:20;4.00;;;3.60;;
11191;SDS011;5652;48.406;10.820;2024-02-04T05:00:49;4.03;;;3.63;;
11191;SDS011;5652;48.406;10.820;2024-02-04T05:03:16;3.60;;;3.30;;
11191;SDS011;5652;48.406;10.820;2024-02-04T05:05:43;3.90;;;3.50;;
11191;SDS011;5652;48.406;10.820;2024-02-04T05:08:11;3.92;;;3.53;;
11191;SDS011;5652;48.406;10.820;2024-02-04T05:10:38;4.18;;;3.58;;
11191;SDS011;5652;48.406;10.820;2024-02-04T05:13:05;3.87;;;3.40;;
11191;SDS011;5652;48.406;10.820;2024-02-04T05:15:32;4.20;;;3.67;;
11191;SDS011;5652;48.406;10.820;2024-02-04T05:18:01;4.55;;;3.95;;
11191;SDS011;5652;48.406;10.820;2024-02-04T05:20:29;4.25;;;3.70;;
11191;SDS011;5652;48.406;10.820;2024-02-04T05:22:56;4.10;;;3.60;;
11191;SDS011;5652;48.406;10.820;2024-02-04T05:25:23;4.25;;;3.58;;
11191;SDS011;5652;48.406;10.820;2024-02-04T05:27:50;4.13;;;3.65;;
11191;SDS011;5652;48.406;10.820;2024-02-04T05:30:17;4.32;;;3.88;;
11191;SDS011;5652;48.406;10.820;2024-02-04T05:32:45;4.35;;;3.70;;
11191;SDS011;5652;48.406;10.820;2024-02-04T05:35:13;4.38;;;3.60;;
11191;SDS011;5652;48.406;10.820;2024-02-04T05:37:40;4.82;;;4.18;;
11191;SDS011;5652;48.406;10.820;2024-02-04T05:40:07;4.43;;;3.65;;
11191;SDS011;5652;48.406;10.820;2024-02-04T05:42:34;4.00;;;3.60;;
11191;SDS011;5652;48.406;10.820;2024-02-04T05:45:02;5.13;;;4.20;;
11191;SDS011;5652;48.406;10.820;2024-02-04T05:47:30;4.70;;;3.90;;
11191;SDS011;5652;48.406;10.820;2024-02-04T05:49:57;4.40;;;3.60;;
11191;SDS011;5652;48.406;10.820;2024-02-04T05:52:26;4.32;;;3.47;;
11191;SDS011;5652;48.406;10.820;2024-02-04T05:54:53;4.22;;;3.83;;
11191;SDS011;5652;48.406;10.820;2024-02-04T05:57:20;5.03;;;3.90;;
11191;SDS011;5652;48.406;10.820;2024-02-04T05:59:47;4.60;;;4.00;;
11191;SDS011;5652;48.406;10.820;2024-02-04T06:02:14;4.28;;;3.60;;
11191;SDS011;5652;48.406;10.820;2024-02-04T06:04:41;4.47;;;3.90;;
11191;SDS011;5652;48.406;10.820;2024-02-04T06:07:08;4.43;;;4.00;;
11191;SDS011;5652;48.406;10.820;2024-02-04T06:09:37;5.85;;;4.03;;
11191;SDS011;5652;48.406;10.820;2024-02-04T06:12:04;4.72;;;3.70;;
11191;SDS011;5652;48.406;10.820;2024-02-04T06:14:32;5.72;;;3.85;;
11191;SDS011;5652;48.406;10.820;2024-02-04T06:17:01;4.53;;;3.83;;
11191;SDS011;5652;48.406;10.820;2024-02-04T06:19:28;5.20;;;3.85;;
11191;SDS011;5652;48.406;10.820;2024-02-04T06:21:55;5.60;;;4.00;;
11191;SDS011;5652;48.406;10.820;2024-02-04T06:24:22;5.50;;;4.00;;
11191;SDS011;5652;48.406;10.820;2024-02-04T06:26:51;4.13;;;3.70;;
11191;SDS011;5652;48.406;10.820;2024-02-04T06:29:18;4.38;;;3.83;;
11191;SDS011;5652;48.406;10.820;2024-02-04T06:31:45;4.32;;;3.90;;
11191;SDS011;5652;48.406;10.820;2024-02-04T06:34:12;5.55;;;3.83;;
11191;SDS011;5652;48.406;10.820;2024-02-04T06:36:42;3.95;;;3.10;;
11191;SDS011;5652;48.406;10.820;2024-02-04T06:39:09;4.60;;;3.20;;
11191;SDS011;5652;48.406;10.820;2024-02-04T06:41:36;4.70;;;3.30;;
11191;SDS011;5652;48.406;10.820;2024-02-04T06:44:05;5.40;;;3.45;;
11191;SDS011;5652;48.406;10.820;2024-02-04T06:46:32;4.85;;;3.40;;
11191;SDS011;5652;48.406;10.820;2024-02-04T06:48:59;3.83;;;3.00;;
11191;SDS011;5652;48.406;10.820;2024-02-04T06:51:27;3.77;;;3.07;;
11191;SDS011;5652;48.406;10.820;2024-02-04T06:53:54;4.30;;;3.13;;
11191;SDS011;5652;48.406;10.820;2024-02-04T06:56:21;4.38;;;3.50;;
11191;SDS011;5652;48.406;10.820;2024-02-04T06:58:48;5.53;;;3.58;;
11191;SDS011;5652;48.406;10.820;2024-02-04T07:01:17;4.73;;;3.50;;
11191;SDS011;5652;48.406;10.820;2024-02-04T07:03:44;4.85;;;3.65;;
11191;SDS011;5652;48.406;10.820;2024-02-04T07:06:11;5.65;;;3.65;;
11191;SDS011;5652;48.406;10.820;2024-02-04T07:08:39;5.53;;;3.72;;
11191;SDS011;5652;48.406;10.820;2024-02-04T07:11:06;5.60;;;3.95;;
11191;SDS011;5652;48.406;10.820;2024-02-04T07:13:33;5.95;;;4.03;;
11191;SDS011;5652;48.406;10.820;2024-02-04T07:16:00;4.80;;;3.42;;
11191;SDS011;5652;48.406;10.820;2024-02-04T07:18:28;6.78;;;4.18;;
11191;SDS011;5652;48.406;10.820;2024-02-04T07:20:56;4.40;;;3.90;;
11191;SDS011;5652;48.406;10.820;2024-02-04T07:23:23;6.22;;;3.90;;
11191;SDS011;5652;48.406;10.820;2024-02-04T07:25:50;5.10;;;3.97;;
11191;SDS011;5652;48.406;10.820;2024-02-04T07:28:17;5.32;;;4.10;;
11191;SDS011;5652;48.406;10.820;2024-02-04T07:30:44;5.38;;;4.00;;
11191;SDS011;5652;48.406;10.820;2024-02-04T07:33:11;5.65;;;3.90;;
11191;SDS011;5652;48.406;10.820;2024-02-04T07:35:40;4.97;;;3.80;;
11191;SDS011;5652;48.406;10.820;2024-02-04T07:38:07;5.13;;;4.28;;
11191;SDS011;5652;48.406;10.820;2024-02-04T07:40:34;4.63;;;3.83;;
11191;SDS011;5652;48.406;10.820;2024-02-04T07:43:01;4.13;;;3.73;;
11191;SDS011;5652;48.406;10.820;2024-02-04T07:45:29;5.10;;;4.00;;
11191;SDS011;5652;48.406;10.820;2024-02-04T07:47:56;4.93;;;3.80;;
11191;SDS011;5652;48.406;10.820;2024-02-04T07:50:23;4.60;;;3.72;;
11191;SDS011;5652;48.406;10.820;2024-02-04T07:52:52;4.13;;;3.30;;
11191;SDS011;5652;48.406;10.820;2024-02-04T07:55:19;4.47;;;3.72;;
11191;SDS011;5652;48.406;10.820;2024-02-04T07:57:46;4.37;;;3.00;;
11191;SDS011;5652;48.406;10.820;2024-02-04T08:00:13;4.35;;;3.22;;
11191;SDS011;5652;48.406;10.820;2024-02-04T08:02:46;4.38;;;3.60;;
11191;SDS011;5652;48.406;10.820;2024-02-04T08:05:14;4.88;;;3.60;;
11191;SDS011;5652;48.406;10.820;2024-02-04T08:07:41;4.18;;;3.60;;
11191;SDS011;5652;48.406;10.820;2024-02-04T08:10:10;5.82;;;4.07;;
11191;SDS011;5652;48.406;10.820;2024-02-04T08:12:38;5.80;;;3.70;;
11191;SDS011;5652;48.406;10.820;2024-02-04T08:15:05;4.25;;;3.80;;
11191;SDS011;5652;48.406;10.820;2024-02-04T08:17:33;3.58;;;2.78;;
11191;SDS011;5652;48.406;10.820;2024-02-04T08:19:59;3.80;;;3.20;;
11191;SDS011;5652;48.406;10.820;2024-02-04T08:22:26;4.00;;;3.45;;
11191;SDS011;5652;48.406;10.820;2024-02-04T08:24:53;3.97;;;3.58;;
11191;SDS011;5652;48.406;10.820;2024-02-04T08:27:22;4.22;;;3.55;;
11191;SDS011;5652;48.406;10.820;2024-02-04T08:29:49;3.70;;;3.30;;
11191;SDS011;5652;48.406;10.820;2024-02-04T08:32:16;4.25;;;3.30;;
11191;SDS011;5652;48.406;10.820;2024-02-04T08:34:43;4.40;;;3.33;;
11191;SDS011;5652;48.406;10.820;2024-02-04T08:37:10;4.43;;;3.47;;
11191;SDS011;5652;48.406;10.820;2024-02-04T08:39:37;4.47;;;3.33;;
11191;SDS011;5652;48.406;10.820;2024-02-04T08:42:04;2.95;;;2.65;;
11191;SDS011;5652;48.406;10.820;2024-02-04T08:44:33;4.93;;;3.03;;
11191;SDS011;5652;48.406;10.820;2024-02-04T08:47:00;3.87;;;2.63;;
11191;SDS011;5652;48.406;10.820;2024-02-04T08:49:28;3.42;;;2.90;;
11191;SDS011;5652;48.406;10.820;2024-02-04T08:51:55;2.60;;;2.35;;
11191;SDS011;5652;48.406;10.820;2024-02-04T08:54:22;4.15;;;3.10;;
11191;SDS011;5652;48.406;10.820;2024-02-04T08:56:49;3.17;;;2.53;;
11191;SDS011;5652;48.406;10.820;2024-02-04T08:59:16;3.85;;;2.75;;
11191;SDS011;5652;48.406;10.820;2024-02-04T09:01:44;2.60;;;2.30;;
11191;SDS011;5652;48.406;10.820;2024-02-04T09:04:11;5.13;;;2.88;;
11191;SDS011;5652;48.406;10.820;2024-02-04T09:06:39;3.70;;;2.70;;
11191;SDS011;5652;48.406;10.820;2024-02-04T09:09:06;2.70;;;2.40;;
11191;SDS011;5652;48.406;10.820;2024-02-04T09:11:34;2.50;;;2.13;;
11191;SDS011;5652;48.406;10.820;2024-02-04T09:14:01;3.38;;;2.58;;
11191;SDS011;5652;48.406;10.820;2024-02-04T09:16:29;3.67;;;2.53;;
11191;SDS011;5652;48.406;10.820;2024-02-04T09:18:57;5.38;;;2.40;;
11191;SDS011;5652;48.406;10.820;2024-02-04T09:21:24;2.77;;;2.10;;
11191;SDS011;5652;48.406;10.820;2024-02-04T09:23:51;2.40;;;1.88;;
11191;SDS011;5652;48.406;10.820;2024-02-04T09:26:19;2.43;;;2.17;;
11191;SDS011;5652;48.406;10.820;2024-02-04T09:28:46;2.17;;;1.60;;
11191;SDS011;5652;48.406;10.820;2024-02-04T09:31:13;2.28;;;2.08;;
11191;SDS011;5652;48.406;10.820;2024-02-04T09:33:40;2.13;;;1.92;;
11191;SDS011;5652;48.406;10.820;2024-02-04T09:36:08;2.70;;;2.00;;
11191;SDS011;5652;48.406;10.820;2024-02-04T09:38:35;2.47;;;1.83;;
11191;SDS011;5652;48.406;10.820;2024-02-04T09:41:02;2.45;;;2.10;;
11191;SDS011;5652;48.406;10.820;2024-02-04T09:43:30;2.13;;;1.92;;
11191;SDS011;5652;48.406;10.820;2024-02-04T09:45:58;3.05;;;1.98;;
11191;SDS011;5652;48.406;10.820;2024-02-04T09:48:25;2.55;;;1.98;;
11191;SDS011;5652;48.406;10.820;2024-02-04T09:50:53;1.98;;;1.77;;
11191;SDS011;5652;48.406;10.820;2024-02-04T09:53:25;3.50;;;1.80;;
11191;SDS011;5652;48.406;10.820;2024-02-04T09:55:56;2.00;;;1.70;;
11191;SDS011;5652;48.406;10.820;2024-02-04T09:58:23;2.17;;;1.80;;
11191;SDS011;5652;48.406;10.820;2024-02-04T10:00:50;2.33;;;2.00;;
11191;SDS011;5652;48.406;10.820;2024-02-04T10:03:18;3.35;;;1.50;;
11191;SDS011;5652;48.406;10.820;2024-02-04T10:05:46;4.68;;;1.73;;
11191;SDS011;5652;48.406;10.820;2024-02-04T10:08:13;2.87;;;2.00;;
11191;SDS011;5652;48.406;10.820;2024-02-04T10:10:42;1.97;;;1.77;;
11191;SDS011;5652;48.406;10.820;2024-02-04T10:13:09;2.40;;;1.85;;
11191;SDS011;5652;48.406;10.820;2024-02-04T10:15:36;2.72;;;1.83;;
11191;SDS011;5652;48.406;10.820;2024-02-04T10:18:04;1.98;;;1.50;;
11191;SDS011;5652;48.406;10.820;2024-02-04T10:20:31;2.10;;;1.60;;
11191;SDS011;5652;48.406;10.820;2024-02-04T10:22:58;1.95;;;1.70;;
11191;SDS011;5652;48.406;10.820;2024-02-04T10:25:25;2.20;;;1.65;;
11191;SDS011;5652;48.406;10.820;2024-02-04T10:27:54;2.00;;;1.70;;
11191;SDS011;5652;48.406;10.820;2024-02-04T10:30:22;2.80;;;1.60;;
11191;SDS011;5652;48.406;10.820;2024-02-04T10:32:51;2.30;;;1.50;;
11191;SDS011;5652;48.406;10.820;2024-02-04T10:35:20;2.10;;;1.50;;
11191;SDS011;5652;48.406;10.820;2024-02-04T10:37:48;2.08;;;1.50;;
11191;SDS011;5652;48.406;10.820;2024-02-04T10:40:16;1.90;;;1.50;;
11191;SDS011;5652;48.406;10.820;2024-02-04T10:42:44;2.63;;;1.45;;
11191;SDS011;5652;48.406;10.820;2024-02-04T10:45:13;2.10;;;1.50;;
11191;SDS011;5652;48.406;10.820;2024-02-04T10:47:44;2.08;;;1.50;;
11191;SDS011;5652;48.406;10.820;2024-02-04T10:50:15;2.20;;;1.30;;
11191;SDS011;5652;48.406;10.820;2024-02-04T10:52:43;1.50;;;1.20;;
11191;SDS011;5652;48.406;10.820;2024-02-04T10:55:11;2.00;;;1.38;;
11191;SDS011;5652;48.406;10.820;2024-02-04T10:57:38;1.60;;;1.40;;
11191;SDS011;5652;48.406;10.820;2024-02-04T11:00:06;2.00;;;1.30;;
11191;SDS011;5652;48.406;10.820;2024-02-04T11:02:35;3.47;;;1.50;;
11191;SDS011;5652;48.406;10.820;2024-02-04T11:05:03;1.15;;;1.00;;
11191;SDS011;5652;48.406;10.820;2024-02-04T11:07:31;2.83;;;1.20;;
11191;SDS011;5652;48.406;10.820;2024-02-04T11:09:59;2.03;;;1.30;;
11191;SDS011;5652;48.406;10.820;2024-02-04T11:12:27;1.35;;;1.15;;
11191;SDS011;5652;48.406;10.820;2024-02-04T11:14:56;1.10;;;1.00;;
11191;SDS011;5652;48.406;10.820;2024-02-04T11:17:40;1.92;;;1.17;;
11191;SDS011;5652;48.406;10.820;2024-02-04T11:20:17;2.40;;;1.30;;
11191;SDS011;5652;48.406;10.820;2024-02-04T11:22:51;1.23;;;1.10;;
11191;SDS011;5652;48.406;10.820;2024-02-04T11:25:32;3.47;;;1.40;;
11191;SDS011;5652;48.406;10.820;2024-02-04T11:28:02;1.33;;;1.15;;
11191;SDS011;5652;48.406;10.820;2024-02-04T11:30:32;2.10;;;1.00;;
11191;SDS011;5652;48.406;10.820;2024-02-04T11:33:02;1.63;;;1.23;;
11191;SDS011;5652;48.406;10.820;2024-02-04T11:35:29;1.30;;;1.20;;
11191;SDS011;5652;48.406;10.820;2024-02-04T11:37:57;2.00;;;1.20;;
11191;SDS011;5652;48.406;10.820;2024-02-04T11:40:29;1.90;;;1.02;;
11191;SDS011;5652;48.406;10.820;2024-02-04T11:43:03;1.77;;;1.08;;
11191;SDS011;5652;48.406;10.820;2024-02-04T11:45:30;1.45;;;1.30;;
11191;SDS011;5652;48.406;10.820;2024-02-04T11:47:59;1.30;;;1.20;;
11191;SDS011;5652;48.406;10.820;2024-02-04T11:50:29;2.20;;;1.30;;
11191;SDS011;5652;48.406;10.820;2024-02-04T11:53:01;1.30;;;1.20;;
11191;SDS011;5652;48.406;10.820;2024-02-04T11:55:29;2.10;;;1.23;;
11191;SDS011;5652;48.406;10.820;2024-02-04T11:57:56;1.23;;;1.10;;
11191;SDS011;5652;48.406;10.820;2024-02-04T12:00:24;1.35;;;1.02;;
11191;SDS011;5652;48.406;10.820;2024-02-04T12:02:59;1.60;;;1.13;;
11191;SDS011;5652;48.406;10.820;2024-02-04T12:05:27;1.00;;;1.00;;
11191;SDS011;5652;48.406;10.820;2024-02-04T12:07:55;2.15;;;1.20;;
11191;SDS011;5652;48.406;10.820;2024-02-04T12:10:22;0.90;;;0.90;;
11191;SDS011;5652;48.406;10.820;2024-02-04T12:12:51;1.27;;;1.08;;
11191;SDS011;5652;48.406;10.820;2024-02-04T12:15:18;1.35;;;1.00;;
11191;SDS011;5652;48.406;10.820;2024-02-04T12:17:45;1.23;;;1.00;;
11191;SDS011;5652;48.406;10.820;2024-02-04T12:20:13;1.77;;;1.00;;
11191;SDS011;5652;48.406;10.820;2024-02-04T12:22:40;1.55;;;1.10;;
11191;SDS011;5652;48.406;10.820;2024-02-04T12:25:09;1.70;;;1.07;;
11191;SDS011;5652;48.406;10.820;2024-02-04T12:27:37;2.88;;;1.00;;
11191;SDS011;5652;48.406;10.820;2024-02-04T12:30:04;1.83;;;1.25;;
11191;SDS011;5652;48.406;10.820;2024-02-04T12:32:32;1.80;;;1.10;;
11191;SDS011;5652;48.406;10.820;2024-02-04T12:34:59;1.88;;;1.17;;
11191;SDS011;5652;48.406;10.820;2024-02-04T12:37:27;1.35;;;1.10;;
11191;SDS011;5652;48.406;10.820;2024-02-04T12:39:55;1.17;;;1.00;;
11191;SDS011;5652;48.406;10.820;2024-02-04T12:42:25;1.10;;;1.00;;
11191;SDS011;5652;48.406;10.820;2024-02-04T12:44:56;3.63;;;1.23;;
11191;SDS011;5652;48.406;10.820;2024-02-04T12:47:23;1.50;;;1.10;;
11191;SDS011;5652;48.406;10.820;2024-02-04T12:49:57;2.65;;;1.20;;
11191;SDS011;5652;48.406;10.820;2024-02-04T12:52:24;1.75;;;1.27;;
11191;SDS011;5652;48.406;10.820;2024-02-04T12:54:51;2.80;;;1.30;;
11191;SDS011;5652;48.406;10.820;2024-02-04T12:57:22;2.00;;;1.20;;
11191;SDS011;5652;48.406;10.820;2024-02-04T12:59:51;2.00;;;1.30;;
11191;SDS011;5652;48.406;10.820;2024-02-04T13:02:19;2.03;;;1.10;;
11191;SDS011;5652;48.406;10.820;2024-02-04T13:04:46;2.50;;;1.20;;
11191;SDS011;5652;48.406;10.820;2024-02-04T13:07:14;1.20;;;1.05;;
11191;SDS011;5652;48.406;10.820;2024-02-04T13:09:42;1.80;;;1.30;;
11191;SDS011;5652;48.406;10.820;2024-02-04T13:12:10;1.10;;;1.00;;
11191;SDS011;5652;48.406;10.820;2024-02-04T13:14:38;1.40;;;1.20;;
11191;SDS011;5652;48.406;10.820;2024-02-04T13:17:06;1.50;;;1.20;;
11191;SDS011;5652;48.406;10.820;2024-02-04T13:19:33;1.98;;;1.33;;
11191;SDS011;5652;48.406;10.820;2024-02-04T13:22:01;2.17;;;1.35;;
11191;SDS011;5652;48.406;10.820;2024-02-04T13:24:28;2.97;;;1.50;;
11191;SDS011;5652;48.406;10.820;2024-02-04T13:26:55;2.30;;;1.30;;
11191;SDS011;5652;48.406;10.820;2024-02-04T13:29:22;2.25;;;1.23;;
11191;SDS011;5652;48.406;10.820;2024-02-04T13:31:49;1.67;;;1.27;;
11191;SDS011;5652;48.406;10.820;2024-02-04T13:34:18;1.30;;;1.20;;
11191;SDS011;5652;48.406;10.820;2024-02-04T13:36:45;3.35;;;1.30;;
11191;SDS011;5652;48.406;10.820;2024-02-04T13:39:12;3.73;;;1.50;;
11191;SDS011;5652;48.406;10.820;2024-02-04T13:41:42;2.17;;;1.20;;
11191;SDS011;5652;48.406;10.820;2024-02-04T13:44:10;2.33;;;1.38;;
11191;SDS011;5652;48.406;10.820;2024-02-04T13:46:37;1.80;;;1.20;;
11191;SDS011;5652;48.406;10.820;2024-02-04T13:49:07;1.58;;;1.30;;
11191;SDS011;5652;48.406;10.820;2024-02-04T13:51:35;2.75;;;1.33;;
11191;SDS011;5652;48.406;10.820;2024-02-04T13:54:02;3.05;;;1.40;;
11191;SDS011;5652;48.406;10.820;2024-02-04T13:56:29;1.40;;;1.20;;
11191;SDS011;5652;48.406;10.820;2024-02-04T13:58:58;2.63;;;1.50;;
11191;SDS011;5652;48.406;10.820;2024-02-04T14:01:25;2.10;;;1.23;;
11191;SDS011;5652;48.406;10.820;2024-02-04T14:03:52;2.08;;;1.27;;
11191;SDS011;5652;48.406;10.820;2024-02-04T14:06:19;2.35;;;1.40;;
11191;SDS011;5652;48.406;10.820;2024-02-04T14:08:48;1.73;;;1.23;;
11191;SDS011;5652;48.406;10.820;2024-02-04T14:11:15;2.13;;;1.42;;
11191;SDS011;5652;48.406;10.820;2024-02-04T14:13:42;1.83;;;1.33;;
11191;SDS011;5652;48.406;10.820;2024-02-04T14:16:09;1.90;;;1.30;;
11191;SDS011;5652;48.406;10.820;2024-02-04T14:18:36;2.73;;;1.60;;
11191;SDS011;5652;48.406;10.820;2024-02-04T14:21:05;2.70;;;1.50;;
11191;SDS011;5652;48.406;10.820;2024-02-04T14:23:34;2.95;;;2.08;;
11191;SDS011;5652;48.406;10.820;2024-02-04T14:26:03;4.28;;;2.63;;
11191;SDS011;5652;48.406;10.820;2024-02-04T14:28:33;3.40;;;1.42;;
11191;SDS011;5652;48.406;10.820;2024-02-04T14:31:06;2.17;;;1.70;;
11191;SDS011;5652;48.406;10.820;2024-02-04T14:33:33;2.40;;;1.80;;
11191;SDS011;5652;48.406;10.820;2024-02-04T14:36:00;2.95;;;1.70;;
11191;SDS011;5652;48.406;10.820;2024-02-04T14:38:28;2.77;;;1.60;;
11191;SDS011;5652;48.406;10.820;2024-02-04T14:40:56;3.40;;;2.28;;
11191;SDS011;5652;48.406;10.820;2024-02-04T14:43:24;2.28;;;1.55;;
11191;SDS011;5652;48.406;10.820;2024-02-04T14:45:51;1.80;;;1.55;;
11191;SDS011;5652;48.406;10.820;2024-02-04T14:48:18;5.35;;;1.70;;
11191;SDS011;5652;48.406;10.820;2024-02-04T14:50:46;2.97;;;1.60;;